M/y A.b.normal — 2DLI6 — position and weather

sailwx.info

Track history (hours):
 
Tides and Currents Weather Stations Pressure Air Temp Water Temp Dewpoint Dewpoint Depression Visibility Wind Speed Wind Dir Waves Ship Positions

M/y A.b.normal

Last reported at 2015-Jul-29 21:16 UTC. Time now 2015-Jul-31 07:22 UTC.
Position N 38°52' E 001°19'.

Length 28 m; draft 2.6 m.

Type: Pleasure craft. MMSI: 235079977.

Date/timePositionNaut miles runAvg speedWind from/ knotsBaromVisibWave heightAir tempDewpointWater temp
2015-Jul-29 21:16N 38°52' E 001°19'0 0.0
2015-Jul-29 18:31N 38°52' E 001°19'0 0.0
2015-Jul-29 17:32N 38°52' E 001°19'0 0.0
2015-Jul-29 16:33N 38°52' E 001°19'0 0.0
2015-Jul-29 15:33N 38°52' E 001°19'0 0.0
2015-Jul-29 14:31N 38°52' E 001°19'7 0.2
2015-Jul-28 00:11N 38°55' E 001°27'0 0.0
2015-Jul-27 18:32N 38°55' E 001°27'0 0.0
2015-Jul-27 17:33N 38°55' E 001°27'7 6.5
2015-Jul-27 16:33N 38°49' E 001°24'2 0.6
2015-Jul-27 13:12N 38°50' E 001°23'0 0.0
2015-Jul-27 11:31N 38°50' E 001°23'11 5.8
2015-Jul-27 09:33N 38°60' E 001°15'12 0.5
2015-Jul-26 08:31N 38°52' E 001°26'2 0.1
2015-Jul-24 23:21N 38°55' E 001°27'4 0.3
2015-Jul-24 11:31N 38°51' E 001°26'6 0.3
2015-Jul-23 12:29N 38°45' E 001°26'0 0.0
2015-Jul-23 11:32N 38°45' E 001°26'3 0.4
2015-Jul-23 03:06N 38°42' E 001°23'10 1.1
2015-Jul-22 17:30N 38°52' E 001°19'0 0.0
2015-Jul-22 16:19N 38°52' E 001°19'0 0.0
2015-Jul-22 06:27N 38°52' E 001°19'0 0.0
2015-Jul-22 05:15N 38°52' E 001°19'0 0.0
2015-Jul-22 04:11N 38°52' E 001°19'0 0.0
2015-Jul-22 03:27N 38°52' E 001°19'0 0.0
2015-Jul-21 22:18N 38°52' E 001°19'0 0.0
2015-Jul-21 18:32N 38°52' E 001°19'0 0.0
2015-Jul-21 17:33N 38°52' E 001°19'0 0.0
2015-Jul-21 16:33N 38°52' E 001°19'0 0.0
2015-Jul-21 14:31N 38°52' E 001°19'0 0.0
2015-Jul-21 13:33N 38°52' E 001°19'0 0.0
2015-Jul-21 12:33N 38°52' E 001°19'0 0.0
2015-Jul-21 11:21N 38°52' E 001°19'0 0.0
2015-Jul-20 04:22N 38°52' E 001°19'  
Track history (hours):
 
Tides and Currents Weather Stations Pressure Air Temp Water Temp Dewpoint Dewpoint Depression Visibility Wind Speed Wind Dir Waves Ship Positions

M/y A.b.normal

Last reported at 2015-Jul-29 21:16 UTC. Time now 2015-Jul-31 07:22 UTC.
Position N 38°52' E 001°19'.

Length 28 m; draft 2.6 m.

Type: Pleasure craft. MMSI: 235079977.

Date/timePositionNaut miles runAvg speedWind from/ knotsBaromVisibWave heightAir tempDewpointWater temp
2015-Jul-29 21:16N 38°52' E 001°19'0 0.0
2015-Jul-29 18:31N 38°52' E 001°19'0 0.0
2015-Jul-29 17:32N 38°52' E 001°19'0 0.0
2015-Jul-29 16:33N 38°52' E 001°19'0 0.0
2015-Jul-29 15:33N 38°52' E 001°19'0 0.0
2015-Jul-29 14:31N 38°52' E 001°19'7 0.2
2015-Jul-28 00:11N 38°55' E 001°27'0 0.0
2015-Jul-27 18:32N 38°55' E 001°27'0 0.0
2015-Jul-27 17:33N 38°55' E 001°27'7 6.5
2015-Jul-27 16:33N 38°49' E 001°24'2 0.6
2015-Jul-27 13:12N 38°50' E 001°23'0 0.0
2015-Jul-27 11:31N 38°50' E 001°23'11 5.8
2015-Jul-27 09:33N 38°60' E 001°15'12 0.5
2015-Jul-26 08:31N 38°52' E 001°26'2 0.1
2015-Jul-24 23:21N 38°55' E 001°27'4 0.3
2015-Jul-24 11:31N 38°51' E 001°26'6 0.3
2015-Jul-23 12:29N 38°45' E 001°26'0 0.0
2015-Jul-23 11:32N 38°45' E 001°26'3 0.4
2015-Jul-23 03:06N 38°42' E 001°23'10 1.1
2015-Jul-22 17:30N 38°52' E 001°19'0 0.0
2015-Jul-22 16:19N 38°52' E 001°19'0 0.0
2015-Jul-22 06:27N 38°52' E 001°19'0 0.0
2015-Jul-22 05:15N 38°52' E 001°19'0 0.0
2015-Jul-22 04:11N 38°52' E 001°19'0 0.0
2015-Jul-22 03:27N 38°52' E 001°19'0 0.0
2015-Jul-21 22:18N 38°52' E 001°19'0 0.0
2015-Jul-21 18:32N 38°52' E 001°19'0 0.0
2015-Jul-21 17:33N 38°52' E 001°19'0 0.0
2015-Jul-21 16:33N 38°52' E 001°19'0 0.0
2015-Jul-21 14:31N 38°52' E 001°19'0 0.0
2015-Jul-21 13:33N 38°52' E 001°19'0 0.0
2015-Jul-21 12:33N 38°52' E 001°19'0 0.0
2015-Jul-21 11:21N 38°52' E 001°19'0 0.0
2015-Jul-20 04:22N 38°52' E 001°19'  

Dump ship's entire track history